createdAt,value
2022-09-23T00:00:47.817Z,87.56
2022-09-23T00:01:50.773Z,87.50
2022-09-23T00:02:53.649Z,87.39
2022-09-23T00:03:59.898Z,87.31
2022-09-23T00:05:04.230Z,87.50
2022-09-23T00:06:20.497Z,87.75
2022-09-23T00:07:23.360Z,87.78
2022-09-23T00:08:26.546Z,87.99
2022-09-23T00:09:29.525Z,88.18
2022-09-23T00:10:32.530Z,88.35
2022-09-23T00:11:35.429Z,88.48
2022-09-23T00:12:38.238Z,88.67
2022-09-23T00:13:44.306Z,88.54
2022-09-23T00:14:47.205Z,88.21
2022-09-23T00:15:50.643Z,88.11
2022-09-23T00:16:53.498Z,88.30
2022-09-23T00:17:56.493Z,88.76
2022-09-23T00:18:59.667Z,88.95
2022-09-23T00:20:02.756Z,88.86
2022-09-23T00:21:07.577Z,88.74
2022-09-23T00:22:10.532Z,88.91
2022-09-23T00:23:13.399Z,89.06
2022-09-23T00:24:16.260Z,89.07
2022-09-23T00:25:19.300Z,88.89
2022-09-23T00:26:23.741Z,88.79
2022-09-23T00:27:26.647Z,88.77
2022-09-23T00:28:30.477Z,89.04
2022-09-23T00:29:33.827Z,89.31
2022-09-23T00:30:36.926Z,89.65
2022-09-23T00:31:39.744Z,89.69
2022-09-23T00:32:42.793Z,89.74
2022-09-23T00:33:45.622Z,89.93
2022-09-23T00:34:48.632Z,89.99
2022-09-23T00:35:51.704Z,90.05
2022-09-23T00:36:54.556Z,89.87
2022-09-23T00:37:57.614Z,89.99
2022-09-23T00:39:00.578Z,90.19
2022-09-23T00:40:04.168Z,90.35
2022-09-23T00:41:07.428Z,90.67
2022-09-23T00:42:16.562Z,90.75
2022-09-23T00:43:19.661Z,90.85
2022-09-23T00:44:40.432Z,91.10
2022-09-23T00:45:48.953Z,91.27
2022-09-23T00:46:52.677Z,91.18
2022-09-23T00:47:58.594Z,91.09
2022-09-23T00:49:16.038Z,91.03
2022-09-23T00:50:37.471Z,90.85
2022-09-23T00:51:46.954Z,91.03
2022-09-23T00:52:51.778Z,91.27
2022-09-23T00:53:54.684Z,91.35
2022-09-23T00:55:00.253Z,91.33
2022-09-23T00:56:07.661Z,91.37
2022-09-23T00:57:11.941Z,91.25
2022-09-23T00:58:20.402Z,91.16
2022-09-23T00:59:24.684Z,91.19
2022-09-23T01:00:27.647Z,91.30
2022-09-23T01:01:30.955Z,91.27
2022-09-23T01:02:38.469Z,91.38
2022-09-23T01:03:45.125Z,91.30
2022-09-23T01:04:51.158Z,91.44
2022-09-23T01:05:54.636Z,91.23
2022-09-23T01:06:57.550Z,91.14
2022-09-23T01:08:03.161Z,91.31
2022-09-23T01:09:06.282Z,91.26
2022-09-23T01:10:11.251Z,91.15
2022-09-23T01:11:41.805Z,91.14
2022-09-23T01:13:16.385Z,91.14
2022-09-23T01:14:43.646Z,91.52
2022-09-23T01:15:58.614Z,91.36
2022-09-23T01:17:11.562Z,91.47
2022-09-23T01:18:14.365Z,91.62
2022-09-23T01:19:29.203Z,91.84
2022-09-23T01:20:45.065Z,91.84
2022-09-23T01:22:01.554Z,91.97
2022-09-23T01:23:37.550Z,92.25
2022-09-23T01:25:10.030Z,92.54
2022-09-23T01:26:41.238Z,92.78
2022-09-23T01:28:24.128Z,92.72
2022-09-23T01:29:50.579Z,92.69
2022-09-23T01:30:53.400Z,92.75
2022-09-23T01:32:05.799Z,92.99
2022-09-23T01:33:22.918Z,93.06
2022-09-23T01:34:39.170Z,93.18
2022-09-23T01:35:48.336Z,93.45
2022-09-23T01:36:58.641Z,93.46
2022-09-23T01:38:10.732Z,93.52
2022-09-23T01:39:24.365Z,93.70
2022-09-23T01:41:03.624Z,93.63
2022-09-23T01:42:24.701Z,93.54
2022-09-23T01:43:46.356Z,93.43
2022-09-23T01:44:57.372Z,93.45
2022-09-23T01:46:02.105Z,93.37
2022-09-23T01:47:11.210Z,93.33
2022-09-23T01:48:27.241Z,93.43
2022-09-23T01:49:44.423Z,93.49
2022-09-23T01:50:56.833Z,93.58
2022-09-23T01:52:11.688Z,93.75
2022-09-23T01:53:26.928Z,93.85
2022-09-23T01:54:41.391Z,93.91
2022-09-23T01:55:50.354Z,93.88
2022-09-23T01:57:05.763Z,93.87
2022-09-23T01:58:17.306Z,93.88
2022-09-23T01:59:28.916Z,93.79
2022-09-23T02:00:35.166Z,93.68
2022-09-23T02:02:20.189Z,93.76
2022-09-23T02:03:34.328Z,93.72
2022-09-23T02:04:40.008Z,93.73
2022-09-23T02:05:51.097Z,93.82
2022-09-23T02:07:03.696Z,93.70
2022-09-23T02:08:16.838Z,93.60
2022-09-23T02:09:25.943Z,93.72
2022-09-23T02:10:36.342Z,93.90
2022-09-23T02:11:45.902Z,94.01
2022-09-23T02:12:53.268Z,93.96
2022-09-23T02:13:59.066Z,93.93
2022-09-23T02:15:18.239Z,94.01
2022-09-23T02:16:26.475Z,94.05
2022-09-23T02:17:37.414Z,94.19
2022-09-23T02:19:00.383Z,94.26
2022-09-23T02:20:06.255Z,94.32
2022-09-23T02:21:10.064Z,94.50
2022-09-23T02:22:19.837Z,94.56
2022-09-23T02:23:35.449Z,94.61
2022-09-23T02:24:39.844Z,94.54
2022-09-23T02:26:19.754Z,94.37
2022-09-23T02:27:42.851Z,94.23
2022-09-23T02:29:20.899Z,94.05
2022-09-23T02:30:29.944Z,93.82
2022-09-23T02:31:38.261Z,93.66
2022-09-23T02:32:46.618Z,93.49
2022-09-23T02:34:00.572Z,93.46
2022-09-23T02:35:10.814Z,93.49
2022-09-23T02:36:21.332Z,93.49
2022-09-23T02:37:45.295Z,93.43
2022-09-23T02:38:57.993Z,93.40
2022-09-23T02:40:19.379Z,93.39
2022-09-23T02:41:58.471Z,93.45
2022-09-23T02:43:21.420Z,93.48
2022-09-23T02:44:24.658Z,93.65
2022-09-23T02:45:27.791Z,93.69
2022-09-23T02:46:31.210Z,93.76
2022-09-23T02:47:38.363Z,93.94
2022-09-23T02:48:50.987Z,94.11
2022-09-23T02:49:56.732Z,94.25
2022-09-23T02:51:02.629Z,94.33
2022-09-23T02:52:08.028Z,94.28
2022-09-23T02:53:11.227Z,94.19
2022-09-23T02:54:19.030Z,94.12
2022-09-23T02:55:25.307Z,94.01
2022-09-23T02:56:29.058Z,94.05
2022-09-23T02:57:32.427Z,94.09
2022-09-23T02:58:35.390Z,94.14
2022-09-23T02:59:39.069Z,94.20
2022-09-23T03:01:02.443Z,94.21
2022-09-23T03:02:20.880Z,94.11
2022-09-23T03:03:47.541Z,94.06
2022-09-23T03:05:13.213Z,94.13
2022-09-23T03:06:32.767Z,94.15
2022-09-23T03:07:56.954Z,94.26
2022-09-23T03:08:59.707Z,94.25
2022-09-23T03:10:13.643Z,94.12
2022-09-23T03:11:17.868Z,93.96
2022-09-23T03:12:40.954Z,93.82
2022-09-23T03:14:17.807Z,93.80
2022-09-23T03:15:38.239Z,93.67
2022-09-23T03:16:53.834Z,93.69
2022-09-23T03:18:19.135Z,93.71
2022-09-23T03:19:22.039Z,93.69
2022-09-23T03:20:37.554Z,93.74
2022-09-23T03:21:49.348Z,93.93
2022-09-23T03:22:57.297Z,94.13
2022-09-23T03:24:03.362Z,94.19
2022-09-23T03:25:11.266Z,94.13
2022-09-23T03:26:29.385Z,94.04
2022-09-23T03:27:35.171Z,93.90
2022-09-23T03:28:42.487Z,94.07
2022-09-23T03:29:49.355Z,94.15
2022-09-23T03:30:54.961Z,94.32
2022-09-23T03:31:59.409Z,94.26
2022-09-23T03:33:06.784Z,94.19
2022-09-23T03:34:16.643Z,94.27
2022-09-23T03:35:21.616Z,94.42
2022-09-23T03:36:51.888Z,94.33
2022-09-23T03:38:12.740Z,94.13
2022-09-23T03:39:26.654Z,94.17
2022-09-23T03:40:42.323Z,94.46
2022-09-23T03:41:51.227Z,94.73
2022-09-23T03:43:03.124Z,94.91
2022-09-23T03:44:08.451Z,95.08
2022-09-23T03:45:18.701Z,95.21
2022-09-23T03:46:22.639Z,95.30
2022-09-23T03:47:28.501Z,95.37
2022-09-23T03:48:31.454Z,95.46
2022-09-23T03:49:39.536Z,95.53
2022-09-23T03:50:42.462Z,95.61
2022-09-23T03:51:45.337Z,95.68
2022-09-23T03:52:49.872Z,95.71
2022-09-23T03:53:52.723Z,95.71
2022-09-23T03:54:55.420Z,95.66
2022-09-23T03:55:58.343Z,95.71
2022-09-23T03:57:02.253Z,95.74
2022-09-23T03:58:05.186Z,95.73
2022-09-23T03:59:08.276Z,95.77
2022-09-23T04:00:12.630Z,95.85
2022-09-23T04:01:15.578Z,95.84
2022-09-23T04:02:20.400Z,95.78
2022-09-23T04:03:23.344Z,95.67
2022-09-23T04:04:29.983Z,95.56
2022-09-23T04:05:32.908Z,95.57
2022-09-23T04:06:36.079Z,95.66
2022-09-23T04:07:39.650Z,95.75
2022-09-23T04:08:42.642Z,95.79
2022-09-23T04:09:45.493Z,95.89
2022-09-23T04:10:50.716Z,95.98
2022-09-23T04:11:57.140Z,96.02
2022-09-23T04:13:00.063Z,96.04
2022-09-23T04:14:02.968Z,96.06
2022-09-23T04:15:06.612Z,96.09
2022-09-23T04:16:09.832Z,96.13
2022-09-23T04:17:13.500Z,96.23
2022-09-23T04:18:16.320Z,96.32
2022-09-23T04:19:19.606Z,96.33
2022-09-23T04:20:22.579Z,96.26
2022-09-23T04:21:25.685Z,96.26
2022-09-23T04:22:28.684Z,96.28
2022-09-23T04:23:31.559Z,96.24
2022-09-23T04:24:35.030Z,96.14
2022-09-23T04:25:47.964Z,96.00
2022-09-23T04:26:52.942Z,95.73
2022-09-23T04:27:55.815Z,95.59
2022-09-23T04:28:58.687Z,95.53
2022-09-23T04:30:01.533Z,95.47
2022-09-23T04:31:06.335Z,95.50
2022-09-23T04:32:09.362Z,95.59
2022-09-23T04:33:13.124Z,95.67
2022-09-23T04:34:17.671Z,95.76
2022-09-23T04:35:20.556Z,95.73
2022-09-23T04:36:23.381Z,95.70
2022-09-23T04:37:26.301Z,95.72
2022-09-23T04:38:29.370Z,95.72
2022-09-23T04:39:32.272Z,95.63
2022-09-23T04:40:36.332Z,95.60
2022-09-23T04:41:39.288Z,95.64
2022-09-23T04:42:42.177Z,95.62
2022-09-23T04:43:45.708Z,95.63
2022-09-23T04:44:48.522Z,95.68
2022-09-23T04:46:01.966Z,95.65
2022-09-23T04:47:05.031Z,95.67
2022-09-23T04:48:09.945Z,95.74
2022-09-23T04:49:13.304Z,95.82
2022-09-23T04:50:16.578Z,95.87
2022-09-23T04:51:21.973Z,95.91
2022-09-23T04:52:24.976Z,95.98
2022-09-23T04:53:29.480Z,96.05
2022-09-23T04:54:33.164Z,96.25
2022-09-23T04:55:36.059Z,96.41
2022-09-23T04:56:40.007Z,96.56
2022-09-23T04:57:42.950Z,96.57
2022-09-23T04:58:46.317Z,96.57
2022-09-23T04:59:49.398Z,96.63
2022-09-23T05:00:54.389Z,96.73
2022-09-23T05:01:57.329Z,96.77
2022-09-23T05:03:00.265Z,96.77
2022-09-23T05:04:07.214Z,96.80
2022-09-23T05:05:10.328Z,96.78
2022-09-23T05:06:14.845Z,96.76
2022-09-23T05:07:19.366Z,96.72
2022-09-23T05:08:22.403Z,96.74
2022-09-23T05:09:30.788Z,96.67
2022-09-23T05:10:33.711Z,96.54
2022-09-23T05:11:40.489Z,96.51
2022-09-23T05:12:43.615Z,96.49
2022-09-23T05:13:51.674Z,96.48
2022-09-23T05:14:54.810Z,96.39
2022-09-23T05:16:02.694Z,96.26
2022-09-23T05:17:06.502Z,96.17
2022-09-23T05:18:09.503Z,96.11
2022-09-23T05:19:13.775Z,96.01
2022-09-23T05:20:17.448Z,95.95
2022-09-23T05:21:24.768Z,95.83
2022-09-23T05:22:30.032Z,95.69
2022-09-23T05:23:33.653Z,95.53
2022-09-23T05:24:36.771Z,95.45
2022-09-23T05:25:39.636Z,95.32
2022-09-23T05:26:42.606Z,95.11
2022-09-23T05:27:45.736Z,95.02
2022-09-23T05:28:48.938Z,95.00
2022-09-23T05:29:53.415Z,94.69
2022-09-23T05:31:20.034Z,94.35
2022-09-23T05:32:23.734Z,94.16
2022-09-23T05:33:26.567Z,94.10
2022-09-23T05:34:29.485Z,94.14
2022-09-23T05:35:32.456Z,94.27
2022-09-23T05:36:38.580Z,94.31
2022-09-23T05:37:41.932Z,94.44
2022-09-23T05:38:45.599Z,94.61
2022-09-23T05:39:48.616Z,94.80
2022-09-23T05:41:06.267Z,94.94
2022-09-23T05:42:10.106Z,95.09
2022-09-23T05:43:13.062Z,95.26
2022-09-23T05:44:15.801Z,95.29
2022-09-23T05:45:18.638Z,95.27
2022-09-23T05:46:24.419Z,95.19
2022-09-23T05:47:27.311Z,95.24
2022-09-23T05:48:31.844Z,95.12
2022-09-23T05:49:55.631Z,95.03
2022-09-23T05:50:58.357Z,95.00
2022-09-23T05:52:01.278Z,94.95
2022-09-23T05:53:04.075Z,95.01
2022-09-23T05:54:07.220Z,95.17
2022-09-23T05:55:12.084Z,95.26
2022-09-23T05:56:20.302Z,95.30
2022-09-23T05:57:23.045Z,95.25
2022-09-23T05:58:26.210Z,95.30
2022-09-23T05:59:29.010Z,95.41
2022-09-23T06:00:31.973Z,95.62
2022-09-23T06:01:35.738Z,95.81
2022-09-23T06:02:38.838Z,95.90
2022-09-23T06:03:41.936Z,96.03
2022-09-23T06:04:45.311Z,96.15
2022-09-23T06:05:48.724Z,96.16
2022-09-23T06:06:51.723Z,96.20
2022-09-23T06:07:54.563Z,96.21
2022-09-23T06:08:59.687Z,96.30
2022-09-23T06:10:02.617Z,96.33
2022-09-23T06:11:07.884Z,96.39
2022-09-23T06:12:14.335Z,96.40
2022-09-23T06:13:17.159Z,96.44
2022-09-23T06:14:20.152Z,96.46
2022-09-23T06:15:23.005Z,96.48
2022-09-23T06:16:26.753Z,96.49
2022-09-23T06:17:29.857Z,96.51
2022-09-23T06:18:32.692Z,96.51
2022-09-23T06:19:35.582Z,96.45
2022-09-23T06:20:39.427Z,96.32
2022-09-23T06:21:42.368Z,96.19
2022-09-23T06:22:45.242Z,96.03
2022-09-23T06:23:48.196Z,95.94
2022-09-23T06:24:51.173Z,95.91
2022-09-23T06:25:54.470Z,95.92
2022-09-23T06:26:57.383Z,96.03
2022-09-23T06:28:00.609Z,96.14
2022-09-23T06:29:08.930Z,96.22
2022-09-23T06:30:12.403Z,96.27
2022-09-23T06:31:17.113Z,96.28
2022-09-23T06:32:20.892Z,96.27
2022-09-23T06:33:34.595Z,96.26
2022-09-23T06:34:50.452Z,96.24
2022-09-23T06:36:03.493Z,96.21
2022-09-23T06:37:18.034Z,96.14
2022-09-23T06:38:22.377Z,96.09
2022-09-23T06:39:25.254Z,95.98
2022-09-23T06:40:28.290Z,95.91
2022-09-23T06:41:31.425Z,95.84
2022-09-23T06:42:34.285Z,95.73
2022-09-23T06:43:37.259Z,95.60
2022-09-23T06:44:40.017Z,95.48
2022-09-23T06:45:42.832Z,95.33
2022-09-23T06:46:45.854Z,95.14
2022-09-23T06:47:54.316Z,94.98
2022-09-23T06:48:57.132Z,94.87
2022-09-23T06:50:00.024Z,94.82
2022-09-23T06:51:07.537Z,94.77
2022-09-23T06:52:10.347Z,94.65
2022-09-23T06:53:13.686Z,94.51
2022-09-23T06:54:16.574Z,94.47
2022-09-23T06:55:19.328Z,94.37
2022-09-23T06:56:23.351Z,94.29
2022-09-23T06:57:30.055Z,94.24
2022-09-23T06:58:34.685Z,94.13
2022-09-23T06:59:37.560Z,94.04
2022-09-23T07:00:40.382Z,93.74
2022-09-23T07:01:45.736Z,93.41
2022-09-23T07:02:49.126Z,92.97
2022-09-23T07:03:52.364Z,92.72
2022-09-23T07:04:57.964Z,92.54
2022-09-23T07:06:01.472Z,92.36
2022-09-23T07:07:04.434Z,92.20
2022-09-23T07:08:09.939Z,91.99
2022-09-23T07:09:12.942Z,91.82
2022-09-23T07:10:16.095Z,91.70
2022-09-23T07:11:22.715Z,91.49
2022-09-23T07:12:25.513Z,91.18
2022-09-23T07:13:29.058Z,90.96
2022-09-23T07:14:31.859Z,90.78
2022-09-23T07:15:35.139Z,90.30
2022-09-23T07:16:38.147Z,89.95
2022-09-23T07:17:43.241Z,89.70
2022-09-23T07:18:46.213Z,89.51
2022-09-23T07:19:49.211Z,89.51
2022-09-23T07:20:53.990Z,89.28
2022-09-23T07:21:57.295Z,88.85
2022-09-23T07:23:00.779Z,88.68
2022-09-23T07:24:04.077Z,88.64
2022-09-23T07:25:07.226Z,88.47
2022-09-23T07:26:10.463Z,88.34
2022-09-23T07:27:19.862Z,87.21
2022-09-23T07:28:22.946Z,84.69
2022-09-23T07:29:25.927Z,83.28
2022-09-23T07:30:28.788Z,82.83
2022-09-23T07:31:39.116Z,82.63
2022-09-23T07:32:48.766Z,82.34
2022-09-23T07:33:57.450Z,80.57
2022-09-23T07:36:10.387Z,80.36
2022-09-23T07:37:14.582Z,80.45
2022-09-23T07:38:17.671Z,79.52
2022-09-23T07:39:20.631Z,79.34
2022-09-23T07:40:23.799Z,79.46
2022-09-23T07:41:29.206Z,79.52
2022-09-23T07:42:32.069Z,79.81
2022-09-23T07:43:35.761Z,78.19
2022-09-23T07:44:38.681Z,78.28
2022-09-23T07:45:43.830Z,78.51
2022-09-23T07:46:47.143Z,79.42
2022-09-23T07:47:50.212Z,78.19
2022-09-23T07:48:55.410Z,77.13
2022-09-23T07:49:58.397Z,77.50
2022-09-23T07:51:02.135Z,75.11
2022-09-23T07:52:05.388Z,74.19
2022-09-23T07:53:08.771Z,74.57
2022-09-23T07:54:14.626Z,74.87
2022-09-23T07:55:20.993Z,75.52
2022-09-23T07:56:30.552Z,75.36
2022-09-23T07:57:34.107Z,76.25
2022-09-23T07:58:37.172Z,76.45
2022-09-23T07:59:40.982Z,76.25
2022-09-23T08:00:43.837Z,76.18
2022-09-23T08:01:50.797Z,75.02
2022-09-23T08:02:54.022Z,74.10
2022-09-23T08:03:58.622Z,74.81
2022-09-23T08:05:01.661Z,74.92
2022-09-23T08:06:08.500Z,74.84
2022-09-23T08:07:13.252Z,74.66
2022-09-23T08:08:16.148Z,74.34
2022-09-23T08:09:24.224Z,74.22
2022-09-23T08:10:27.067Z,71.88
2022-09-23T08:11:29.867Z,71.07
2022-09-23T08:12:32.634Z,71.14
2022-09-23T08:13:35.539Z,70.64
2022-09-23T08:14:38.860Z,71.36
2022-09-23T08:15:44.488Z,72.79
2022-09-23T08:16:47.933Z,72.40
2022-09-23T08:17:50.954Z,70.81
2022-09-23T08:18:53.912Z,70.78
2022-09-23T08:19:56.842Z,70.99
2022-09-23T08:20:59.830Z,69.92
2022-09-23T08:22:02.704Z,69.76
2022-09-23T08:23:05.700Z,69.79
2022-09-23T08:24:18.556Z,68.42
2022-09-23T08:25:22.745Z,67.76
2022-09-23T08:26:26.128Z,67.75
2022-09-23T08:27:29.590Z,66.92
2022-09-23T08:28:34.146Z,66.85
2022-09-23T08:29:37.012Z,66.42
2022-09-23T08:30:40.143Z,67.56
2022-09-23T08:31:43.712Z,67.75
2022-09-23T08:32:50.703Z,67.34
2022-09-23T08:33:57.900Z,65.69
2022-09-23T08:35:00.770Z,65.02
2022-09-23T08:36:03.812Z,64.53
2022-09-23T08:37:11.603Z,65.43
2022-09-23T08:38:15.907Z,66.24
2022-09-23T08:39:20.624Z,65.72
2022-09-23T08:40:28.563Z,64.24
2022-09-23T08:41:58.198Z,65.14
2022-09-23T08:43:01.866Z,66.81
2022-09-23T08:44:27.130Z,66.80
2022-09-23T08:45:30.152Z,65.51
2022-09-23T08:46:40.041Z,62.80
2022-09-23T08:47:50.288Z,61.24
2022-09-23T08:48:55.529Z,62.51
2022-09-23T08:50:21.162Z,63.75
2022-09-23T08:51:36.797Z,62.18
2022-09-23T08:52:48.625Z,62.41
2022-09-23T08:53:51.599Z,61.59
2022-09-23T08:54:55.570Z,60.39
2022-09-23T08:56:07.416Z,58.39
2022-09-23T08:57:30.441Z,59.91
2022-09-23T08:59:07.848Z,60.06
2022-09-23T09:00:20.541Z,59.84
2022-09-23T09:01:50.230Z,61.52
2022-09-23T09:02:55.697Z,58.90
2022-09-23T09:04:03.923Z,58.48
2022-09-23T09:05:10.282Z,57.29
2022-09-23T09:06:19.115Z,57.90
2022-09-23T09:07:36.655Z,59.52
2022-09-23T09:08:43.429Z,60.08
2022-09-23T09:09:58.068Z,60.53
2022-09-23T09:11:01.398Z,60.74
2022-09-23T09:12:29.093Z,59.54
2022-09-23T09:13:43.590Z,59.83
2022-09-23T09:15:02.929Z,60.79
2022-09-23T09:16:42.148Z,61.11
2022-09-23T09:18:10.074Z,61.74
2022-09-23T09:19:21.992Z,62.00
2022-09-23T09:20:48.125Z,62.26
2022-09-23T09:21:55.020Z,62.14
2022-09-23T09:23:00.805Z,61.59
2022-09-23T09:24:16.705Z,61.78
2022-09-23T09:25:25.486Z,62.42
2022-09-23T09:26:32.163Z,62.05
2022-09-23T09:27:38.119Z,62.32
2022-09-23T09:28:46.219Z,61.47
2022-09-23T09:29:53.855Z,59.89
2022-09-23T09:31:26.070Z,59.55
2022-09-23T09:33:00.939Z,59.52
2022-09-23T09:34:17.194Z,57.86
2022-09-23T09:35:35.347Z,58.99
2022-09-23T09:36:48.828Z,59.32
2022-09-23T09:37:53.598Z,60.26
2022-09-23T09:38:59.202Z,59.20
2022-09-23T09:40:02.592Z,57.97
2022-09-23T09:41:18.031Z,57.76
2022-09-23T09:42:40.527Z,58.13
2022-09-23T09:43:53.680Z,57.66
2022-09-23T09:45:20.006Z,59.90
2022-09-23T09:46:48.483Z,59.40
2022-09-23T09:47:57.055Z,59.91
2022-09-23T09:49:06.136Z,59.25
2022-09-23T09:50:14.507Z,60.20
2022-09-23T09:51:22.404Z,60.42
2022-09-23T09:52:29.969Z,59.62
2022-09-23T09:53:35.985Z,59.60
2022-09-23T09:54:39.799Z,59.84
2022-09-23T09:55:43.255Z,59.48
2022-09-23T09:56:52.357Z,59.73
2022-09-23T09:58:05.375Z,60.47
2022-09-23T09:59:16.927Z,61.01
2022-09-23T10:00:22.259Z,61.93
2022-09-23T10:01:31.410Z,60.41
2022-09-23T10:02:37.325Z,60.48
2022-09-23T10:03:43.451Z,60.44
2022-09-23T10:04:46.512Z,60.32
2022-09-23T10:05:52.544Z,59.34
2022-09-23T10:07:09.674Z,59.36
2022-09-23T10:08:29.910Z,59.88
2022-09-23T10:09:36.139Z,60.45
2022-09-23T10:10:39.993Z,58.97
2022-09-23T10:12:02.214Z,59.20
2022-09-23T10:13:16.392Z,59.88
2022-09-23T10:14:19.224Z,60.34
2022-09-23T10:15:33.270Z,60.92
2022-09-23T10:16:36.699Z,60.24
2022-09-23T10:17:39.939Z,60.20
2022-09-23T10:18:51.485Z,60.27
2022-09-23T10:20:01.215Z,60.78
2022-09-23T10:21:16.383Z,61.31
2022-09-23T10:22:24.717Z,61.79
2022-09-23T10:23:29.559Z,61.24
2022-09-23T10:24:37.146Z,61.44
2022-09-23T10:25:42.074Z,61.34
2022-09-23T10:26:55.300Z,62.19
2022-09-23T10:27:58.416Z,62.77
2022-09-23T10:29:23.415Z,63.23
2022-09-23T10:30:28.573Z,64.12
2022-09-23T10:31:36.069Z,63.88
2022-09-23T10:32:45.323Z,62.87
2022-09-23T10:33:50.627Z,60.94
2022-09-23T10:34:59.667Z,61.34
2022-09-23T10:36:02.629Z,61.21
2022-09-23T10:37:16.371Z,61.54
2022-09-23T10:38:19.526Z,61.88
2022-09-23T10:39:44.493Z,61.84
2022-09-23T10:41:06.320Z,62.07
2022-09-23T10:42:41.686Z,62.42
2022-09-23T10:44:27.992Z,63.48
2022-09-23T10:45:57.653Z,63.97
2022-09-23T10:47:10.958Z,64.74
2022-09-23T10:48:33.022Z,63.18
2022-09-23T10:49:54.246Z,63.03
2022-09-23T10:50:59.620Z,62.85
2022-09-23T10:52:27.377Z,62.93
2022-09-23T10:53:47.803Z,62.50
2022-09-23T10:55:23.195Z,62.92
2022-09-23T10:56:47.233Z,62.62
2022-09-23T10:58:18.599Z,62.17
2022-09-23T10:59:47.879Z,61.19
2022-09-23T11:01:09.234Z,60.91
2022-09-23T11:02:45.396Z,61.07
2022-09-23T11:04:12.992Z,60.27
2022-09-23T11:05:46.945Z,59.42
2022-09-23T11:07:07.690Z,60.79
2022-09-23T11:08:42.940Z,61.24
2022-09-23T11:10:04.592Z,61.34
2022-09-23T11:11:20.086Z,60.03
2022-09-23T11:13:04.683Z,60.21
2022-09-23T11:14:25.883Z,61.16
2022-09-23T11:15:52.989Z,61.50
2022-09-23T11:17:17.474Z,61.66
2022-09-23T11:18:46.027Z,61.81
2022-09-23T11:19:58.266Z,62.14
2022-09-23T11:21:00.959Z,60.99
2022-09-23T11:22:41.978Z,60.52
2022-09-23T11:24:01.887Z,60.61
2022-09-23T11:25:47.474Z,61.31
2022-09-23T11:27:17.939Z,63.19
2022-09-23T11:28:33.600Z,63.67
2022-09-23T11:29:47.749Z,63.22
2022-09-23T11:31:17.313Z,63.61
2022-09-23T11:32:20.232Z,63.51
2022-09-23T11:33:25.731Z,62.55
2022-09-23T11:34:38.938Z,62.13
2022-09-23T11:35:51.237Z,62.44
2022-09-23T11:37:14.266Z,62.88
2022-09-23T11:38:29.687Z,62.70
2022-09-23T11:39:50.186Z,60.32
2022-09-23T11:41:01.862Z,61.22
2022-09-23T11:42:09.911Z,61.16
2022-09-23T11:43:29.495Z,60.86
2022-09-23T11:44:48.711Z,59.09
2022-09-23T11:46:23.592Z,59.20
2022-09-23T11:47:35.295Z,59.63
2022-09-23T11:48:57.620Z,58.69
2022-09-23T11:50:13.014Z,58.85
2022-09-23T11:51:24.329Z,60.46
2022-09-23T11:52:34.282Z,60.41
2022-09-23T11:53:47.312Z,59.41
2022-09-23T11:55:09.954Z,59.88
2022-09-23T11:56:28.761Z,60.32
2022-09-23T11:57:48.848Z,60.65
2022-09-23T11:59:11.636Z,61.04
2022-09-23T12:00:28.183Z,62.25
2022-09-23T12:01:45.539Z,61.48
2022-09-23T12:03:05.440Z,60.76
2022-09-23T12:04:28.176Z,60.08
2022-09-23T12:05:37.358Z,59.32
2022-09-23T12:06:45.525Z,59.10
2022-09-23T12:08:07.339Z,58.90
2022-09-23T12:09:58.388Z,59.15
2022-09-23T12:11:43.857Z,59.14
2022-09-23T12:12:49.722Z,57.53
2022-09-23T12:14:03.620Z,58.88
2022-09-23T12:15:31.389Z,58.94
2022-09-23T12:16:39.952Z,57.43
2022-09-23T12:18:11.464Z,57.56
2022-09-23T12:19:40.402Z,56.13
2022-09-23T12:21:38.833Z,52.59
2022-09-23T12:22:51.378Z,53.02
2022-09-23T12:23:57.244Z,54.08
2022-09-23T12:25:17.585Z,53.95
2022-09-23T12:26:25.346Z,52.97
2022-09-23T12:27:44.321Z,52.29
2022-09-23T12:28:51.047Z,51.29
2022-09-23T12:30:02.882Z,49.20
2022-09-23T12:31:31.761Z,49.91
2022-09-23T12:32:35.573Z,49.02
2022-09-23T12:33:38.994Z,46.49
2022-09-23T12:34:49.696Z,45.49
2022-09-23T12:36:14.681Z,46.78
2022-09-23T12:37:36.462Z,48.38
2022-09-23T12:38:53.521Z,46.14
2022-09-23T12:40:02.028Z,47.68
2022-09-23T12:41:38.033Z,47.22
2022-09-23T12:42:46.247Z,47.27
2022-09-23T12:43:55.621Z,47.26
2022-09-23T12:45:34.174Z,47.65
2022-09-23T12:46:40.432Z,47.53
2022-09-23T12:47:43.653Z,46.80
2022-09-23T12:48:58.321Z,47.50
2022-09-23T12:50:01.571Z,47.19
2022-09-23T12:51:04.581Z,47.30
2022-09-23T12:52:16.652Z,49.06
2022-09-23T12:53:34.611Z,49.91
2022-09-23T12:54:38.825Z,49.64
2022-09-23T12:55:47.227Z,48.16
2022-09-23T12:57:14.226Z,47.88
2022-09-23T12:58:38.238Z,48.97
2022-09-23T12:59:52.664Z,49.37
2022-09-23T13:01:08.355Z,50.02
2022-09-23T13:02:27.470Z,51.27
2022-09-23T13:03:48.937Z,50.78
2022-09-23T13:05:16.056Z,50.95
2022-09-23T13:06:37.395Z,48.96
2022-09-23T13:07:46.066Z,49.33
2022-09-23T13:08:49.917Z,50.12
2022-09-23T13:10:01.461Z,51.34
2022-09-23T13:11:13.554Z,51.48
2022-09-23T13:12:21.298Z,51.07
2022-09-23T13:13:32.044Z,50.70
2022-09-23T13:14:37.667Z,50.93
2022-09-23T13:15:40.634Z,50.91
2022-09-23T13:16:46.114Z,51.46
2022-09-23T13:17:48.936Z,51.90
2022-09-23T13:18:56.162Z,52.25
2022-09-23T13:20:07.327Z,52.28
2022-09-23T13:21:38.211Z,51.84
2022-09-23T13:23:02.671Z,51.52
2022-09-23T13:24:23.752Z,51.84
2022-09-23T13:25:29.229Z,52.07
2022-09-23T13:26:32.783Z,52.52
2022-09-23T13:27:36.870Z,53.11
2022-09-23T13:28:54.172Z,52.83
2022-09-23T13:30:26.223Z,51.74
2022-09-23T13:31:29.977Z,51.88
2022-09-23T13:32:42.121Z,50.70
2022-09-23T13:33:51.787Z,51.19
2022-09-23T13:35:15.952Z,51.51
2022-09-23T13:36:20.413Z,50.53
2022-09-23T13:37:29.787Z,49.61
2022-09-23T13:38:33.678Z,50.58
2022-09-23T13:39:36.745Z,50.46
2022-09-23T13:40:42.353Z,49.53
2022-09-23T13:41:46.077Z,48.95
2022-09-23T13:42:54.986Z,48.91
2022-09-23T13:43:59.759Z,48.44
2022-09-23T13:45:02.615Z,47.49
2022-09-23T13:46:13.493Z,47.13
2022-09-23T13:47:16.885Z,47.88
2022-09-23T13:48:24.026Z,49.07
2022-09-23T13:49:37.233Z,50.02
2022-09-23T13:50:43.622Z,49.71
2022-09-23T13:51:46.438Z,49.14
2022-09-23T13:52:58.521Z,49.68
2022-09-23T13:54:03.986Z,50.72
2022-09-23T13:55:23.776Z,49.03
2022-09-23T13:56:29.296Z,45.20
2022-09-23T13:57:34.711Z,46.06
2022-09-23T13:58:37.568Z,46.61
2022-09-23T13:59:42.450Z,47.45
2022-09-23T14:00:46.043Z,48.38
2022-09-23T14:01:48.930Z,48.30
2022-09-23T14:02:53.344Z,48.26
2022-09-23T14:03:56.292Z,50.00
2022-09-23T14:04:59.235Z,50.22
2022-09-23T14:06:07.994Z,50.73
2022-09-23T14:07:14.339Z,49.97
2022-09-23T14:08:18.023Z,50.12
2022-09-23T14:09:25.269Z,49.27
2022-09-23T14:10:28.423Z,49.29
2022-09-23T14:11:35.634Z,49.89
2022-09-23T14:12:41.537Z,51.89
2022-09-23T14:13:47.387Z,50.14
2022-09-23T14:14:52.051Z,48.97
2022-09-23T14:15:59.492Z,48.41
2022-09-23T14:17:03.296Z,47.96
2022-09-23T14:18:07.655Z,47.51
2022-09-23T14:19:18.371Z,47.36
2022-09-23T14:20:22.450Z,48.00
2022-09-23T14:21:35.213Z,47.56
2022-09-23T14:22:38.176Z,48.07
2022-09-23T14:23:45.302Z,46.86
2022-09-23T14:24:49.458Z,47.52
2022-09-23T14:25:54.081Z,47.60
2022-09-23T14:27:08.180Z,49.10
2022-09-23T14:28:20.824Z,46.44
2022-09-23T14:29:33.162Z,45.34
2022-09-23T14:30:38.674Z,45.39
2022-09-23T14:31:42.483Z,45.86
2022-09-23T14:32:48.160Z,45.96
2022-09-23T14:33:51.054Z,45.27
2022-09-23T14:34:59.863Z,46.14
2022-09-23T14:36:29.462Z,45.79
2022-09-23T14:37:56.773Z,46.96
2022-09-23T14:39:08.570Z,46.52
2022-09-23T14:40:32.598Z,46.59
2022-09-23T14:41:38.937Z,46.94
2022-09-23T14:42:50.108Z,46.36
2022-09-23T14:44:00.024Z,46.39
2022-09-23T14:45:05.517Z,47.12
2022-09-23T14:46:18.534Z,46.85
2022-09-23T14:47:21.932Z,46.92
2022-09-23T14:48:26.484Z,47.65
2022-09-23T14:49:29.480Z,47.69
2022-09-23T14:50:40.799Z,47.59
2022-09-23T14:51:56.338Z,46.85
2022-09-23T14:52:59.198Z,46.93
2022-09-23T14:54:36.258Z,45.59
2022-09-23T14:55:39.505Z,45.79
2022-09-23T14:56:44.091Z,46.50
2022-09-23T14:57:47.765Z,46.37
2022-09-23T14:58:54.426Z,46.95
2022-09-23T15:00:06.496Z,47.75
2022-09-23T15:01:33.778Z,47.56